AirNav   MODERNIZE NOT PRIVATIZE ATC
 
 958 users online  

21ID Phillabaum Heliport
Nordman, Idaho, USA


FAA INFORMATION EFFECTIVE 20 JULY 2017

Location

FAA Identifier: 21ID
Lat/Long: 48-37-53.0000N / 116-52-16.0000W
48-37.883333N / 116-52.266667W
48.6313889 / -116.8711111
(estimated)
Elevation: 2440 ft. / 744 m (estimated)
From city: 3 miles E of NORDMAN, ID
Time zone: UTC -7 (UTC -8 during Standard Time)
Zip code: 83848

Heliport Operations

Heliport use: Private use. Permission required prior to landing
Activation date: 02/2012
Control tower: no
ARTCC: SEATTLE CENTER
FSS: BOISE FLIGHT SERVICE STATION
Attendance: UNATNDD
Wind indicator: yes
Segmented circle: no

Nearby radio navigation aids

NDB name  Hdg/Dist  Freq  Var  ID
IONE081/22.037921EION .. --- -.
SANDPOE315/23.826414ESZT ... --.. -

Heliport Services

Runway Information

Helipad H1

Dimensions: 30 x 12 ft. / 9 x 4 m
Surface: concrete, in good condition
Traffic pattern: leftleft

Heliport Ownership and Management from official FAA records

Ownership: Privately-owned
Owner: STEPHEN PHILLABAUM
2121 W. DENISON RD
DEER PARK, ID 99006
Phone 509-838-6055
Manager: STEPHEN PHILLABAUM
2121 W. DENISON RD
DEER PARK, ID 99006
Phone 509-838-6055

Instrument Procedures

There are no published instrument procedures at 21ID.

Some nearby airports with instrument procedures:

KSZT - Sandpoint Airport (23 nm SE)
65S - Boundary County Airport (24 nm E)
KDEW - Deer Park Airport (46 nm SW)
KCOE - Coeur d'Alene Airport - Pappy Boyington Field (51 nm S)
S59 - Libby Airport (59 nm E)
 
Loc | Ops | Rwys | IFR | FBO | Links
Com | Nav | Svcs | Stats | Notes


 
Aerial photo
No photo
 
Airport distance calculator
Flying to Phillabaum Heliport? Find the distance to fly.

From to 21ID

Sunrise and sunset
Times for 23-Jul-2017
 Local
(UTC-7)
 Zulu
(UTC)
Morning civil twilight04:3311:33
Sunrise05:1112:11
Sunset20:3703:37
Evening civil twilight21:1504:15

Current date and time
Zulu (UTC)  23-Jul-2017 14:26:40
Local (UTC-7)  23-Jul-2017 07:26:40
 
METAR
KSZT 
23nm SE 
231415Z AUTO 00000KT 10SM CLR 17/11 A3002 RMK AO2
K65S 
24nm E 
231415Z AUTO 14004KT 10SM CLR 18/10 A3002 RMK AO2
CWJR 
30nm NE 
231400Z AUTO 09004KT 19/11 RMK AO1 SLP157 T01940107 57003
KDEW 
46nm SW 
231353Z AUTO 00000KT 10SM CLR 18/11 A3001 RMK AO2 SLP146 T01830111
TAF
CYCG 
49nm NW 
230038Z 2301/2304 01008KT P6SM BKN110 BECMG 2302/2304 VRB03KT RMK NXT FCST WILL BE ISSUED AT 231445Z
NOTAMs
Click for the latest NOTAMs
NOTAMs are issued by the DoD/FAA and will open in a separate window not controlled by AirNav.

 

 
 

Would you like to see your business listed on this page?

 If your business provides an interesting product or service to pilots, flight crews, aircraft, or users of the Phillabaum Heliport, you should consider listing it here.  To start the listing process, click on the button below
 
Add a business
 

Other Pages about Phillabaum Heliport

Update a link
 
Copyright © AirNav, LLC. All rights reserved. Privacy Policy  Contact